sensor_id;sensor_type;location;lat;lon;timestamp;P1;durP1;ratioP1;P2;durP2;ratioP2
55527;SDS011;52818;43.308;21.916;2023-04-24T00:00:48;11.80;;;8.60;;
55527;SDS011;52818;43.308;21.916;2023-04-24T00:02:49;10.60;;;8.50;;
55527;SDS011;52818;43.308;21.916;2023-04-24T00:04:49;12.50;;;9.00;;
55527;SDS011;52818;43.308;21.916;2023-04-24T00:06:49;11.40;;;8.80;;
55527;SDS011;52818;43.308;21.916;2023-04-24T00:08:49;14.00;;;8.90;;
55527;SDS011;52818;43.308;21.916;2023-04-24T00:10:49;14.70;;;9.20;;
55527;SDS011;52818;43.308;21.916;2023-04-24T00:12:49;14.40;;;8.90;;
55527;SDS011;52818;43.308;21.916;2023-04-24T00:14:49;14.00;;;9.10;;
55527;SDS011;52818;43.308;21.916;2023-04-24T00:16:49;13.30;;;9.40;;
55527;SDS011;52818;43.308;21.916;2023-04-24T00:18:49;14.80;;;8.50;;
55527;SDS011;52818;43.308;21.916;2023-04-24T00:20:49;14.70;;;8.80;;
55527;SDS011;52818;43.308;21.916;2023-04-24T00:22:50;12.80;;;8.50;;
55527;SDS011;52818;43.308;21.916;2023-04-24T00:24:50;11.60;;;7.50;;
55527;SDS011;52818;43.308;21.916;2023-04-24T00:26:50;12.80;;;8.20;;
55527;SDS011;52818;43.308;21.916;2023-04-24T00:28:50;12.00;;;8.00;;
55527;SDS011;52818;43.308;21.916;2023-04-24T00:30:50;10.50;;;7.30;;
55527;SDS011;52818;43.308;21.916;2023-04-24T00:32:50;10.40;;;7.00;;
55527;SDS011;52818;43.308;21.916;2023-04-24T00:34:50;12.50;;;7.50;;
55527;SDS011;52818;43.308;21.916;2023-04-24T00:36:50;10.20;;;7.10;;
55527;SDS011;52818;43.308;21.916;2023-04-24T00:40:50;10.60;;;7.40;;
55527;SDS011;52818;43.308;21.916;2023-04-24T00:42:50;10.50;;;7.10;;
55527;SDS011;52818;43.308;21.916;2023-04-24T00:44:51;11.10;;;7.00;;
55527;SDS011;52818;43.308;21.916;2023-04-24T00:46:51;10.60;;;7.10;;
55527;SDS011;52818;43.308;21.916;2023-04-24T00:48:51;9.60;;;6.60;;
55527;SDS011;52818;43.308;21.916;2023-04-24T00:53:21;10.10;;;7.00;;
55527;SDS011;52818;43.308;21.916;2023-04-24T00:55:21;12.90;;;7.80;;
55527;SDS011;52818;43.308;21.916;2023-04-24T00:57:23;11.60;;;7.70;;
55527;SDS011;52818;43.308;21.916;2023-04-24T00:59:22;9.90;;;6.90;;
55527;SDS011;52818;43.308;21.916;2023-04-24T01:05:31;11.10;;;6.30;;
55527;SDS011;52818;43.308;21.916;2023-04-24T01:07:26;9.50;;;6.70;;
55527;SDS011;52818;43.308;21.916;2023-04-24T01:13:25;8.90;;;5.90;;
55527;SDS011;52818;43.308;21.916;2023-04-24T01:15:22;10.10;;;5.80;;
55527;SDS011;52818;43.308;21.916;2023-04-24T01:17:22;8.40;;;5.70;;
55527;SDS011;52818;43.308;21.916;2023-04-24T01:19:22;9.50;;;5.90;;
55527;SDS011;52818;43.308;21.916;2023-04-24T01:21:22;8.80;;;5.30;;
55527;SDS011;52818;43.308;21.916;2023-04-24T01:23:23;8.70;;;5.70;;
55527;SDS011;52818;43.308;21.916;2023-04-24T01:25:23;10.00;;;;;
55527;SDS011;52818;43.308;21.916;2023-04-24T01:27:23;7.80;;;;;
55527;SDS011;52818;43.308;21.916;2023-04-24T01:29:23;8.50;;;5.30;;
55527;SDS011;52818;43.308;21.916;2023-04-24T01:31:23;7.70;;;;;
55527;SDS011;52818;43.308;21.916;2023-04-24T01:33:23;7.00;;;4.90;;
55527;SDS011;52818;43.308;21.916;2023-04-24T01:35:23;6.80;;;5.50;;
55527;SDS011;52818;43.308;21.916;2023-04-24T01:37:23;6.30;;;5.10;;
55527;SDS011;52818;43.308;21.916;2023-04-24T01:39:23;6.70;;;5.00;;
55527;SDS011;52818;43.308;21.916;2023-04-24T01:41:23;8.20;;;5.20;;
55527;SDS011;52818;43.308;21.916;2023-04-24T01:43:24;8.10;;;4.90;;
55527;SDS011;52818;43.308;21.916;2023-04-24T01:45:24;7.40;;;5.70;;
55527;SDS011;52818;43.308;21.916;2023-04-24T01:47:24;7.50;;;5.60;;
55527;SDS011;52818;43.308;21.916;2023-04-24T01:49:24;8.60;;;5.50;;
55527;SDS011;52818;43.308;21.916;2023-04-24T01:51:24;8.50;;;5.20;;
55527;SDS011;52818;43.308;21.916;2023-04-24T01:53:24;6.90;;;;;
55527;SDS011;52818;43.308;21.916;2023-04-24T01:55:24;7.80;;;5.50;;
55527;SDS011;52818;43.308;21.916;2023-04-24T01:57:24;7.60;;;5.00;;
55527;SDS011;52818;43.308;21.916;2023-04-24T01:59:24;6.70;;;5.20;;
55527;SDS011;52818;43.308;21.916;2023-04-24T02:01:25;7.30;;;5.00;;
55527;SDS011;52818;43.308;21.916;2023-04-24T02:03:25;8.10;;;5.20;;
55527;SDS011;52818;43.308;21.916;2023-04-24T02:05:25;6.50;;;5.10;;
55527;SDS011;52818;43.308;21.916;2023-04-24T02:07:25;7.70;;;4.70;;
55527;SDS011;52818;43.308;21.916;2023-04-24T02:09:25;7.80;;;4.90;;
55527;SDS011;52818;43.308;21.916;2023-04-24T02:11:25;8.40;;;4.80;;
55527;SDS011;52818;43.308;21.916;2023-04-24T02:13:25;6.90;;;4.90;;
55527;SDS011;52818;43.308;21.916;2023-04-24T02:15:25;6.50;;;5.00;;
55527;SDS011;52818;43.308;21.916;2023-04-24T02:17:25;5.20;;;4.40;;
55527;SDS011;52818;43.308;21.916;2023-04-24T02:19:26;7.00;;;4.70;;
55527;SDS011;52818;43.308;21.916;2023-04-24T02:21:26;5.40;;;;;
55527;SDS011;52818;43.308;21.916;2023-04-24T02:23:26;7.30;;;5.10;;
55527;SDS011;52818;43.308;21.916;2023-04-24T02:25:26;7.70;;;5.30;;
55527;SDS011;52818;43.308;21.916;2023-04-24T02:27:26;7.10;;;4.90;;
55527;SDS011;52818;43.308;21.916;2023-04-24T02:29:26;7.30;;;5.00;;
55527;SDS011;52818;43.308;21.916;2023-04-24T02:31:26;6.50;;;4.90;;
55527;SDS011;52818;43.308;21.916;2023-04-24T02:33:26;8.70;;;5.20;;
55527;SDS011;52818;43.308;21.916;2023-04-24T02:35:26;9.10;;;5.00;;
55527;SDS011;52818;43.308;21.916;2023-04-24T02:37:26;8.10;;;4.90;;
55527;SDS011;52818;43.308;21.916;2023-04-24T02:39:27;8.70;;;5.00;;
55527;SDS011;52818;43.308;21.916;2023-04-24T02:41:27;7.40;;;4.80;;
55527;SDS011;52818;43.308;21.916;2023-04-24T02:43:27;9.40;;;4.90;;
55527;SDS011;52818;43.308;21.916;2023-04-24T02:45:27;7.00;;;4.60;;
55527;SDS011;52818;43.308;21.916;2023-04-24T02:47:27;7.20;;;4.50;;
55527;SDS011;52818;43.308;21.916;2023-04-24T02:49:27;7.60;;;4.70;;
55527;SDS011;52818;43.308;21.916;2023-04-24T02:51:27;7.10;;;4.40;;
55527;SDS011;52818;43.308;21.916;2023-04-24T02:53:27;6.50;;;4.90;;
55527;SDS011;52818;43.308;21.916;2023-04-24T02:55:27;7.30;;;;;
55527;SDS011;52818;43.308;21.916;2023-04-24T02:57:27;6.70;;;;;
55527;SDS011;52818;43.308;21.916;2023-04-24T02:59:28;9.50;;;4.80;;
55527;SDS011;52818;43.308;21.916;2023-04-24T03:01:28;7.30;;;4.40;;
55527;SDS011;52818;43.308;21.916;2023-04-24T03:03:28;6.20;;;5.00;;
55527;SDS011;52818;43.308;21.916;2023-04-24T03:05:28;7.00;;;;;
55527;SDS011;52818;43.308;21.916;2023-04-24T03:07:28;5.60;;;4.60;;
55527;SDS011;52818;43.308;21.916;2023-04-24T03:09:28;6.40;;;4.50;;
55527;SDS011;52818;43.308;21.916;2023-04-24T03:11:28;6.60;;;4.80;;
55527;SDS011;52818;43.308;21.916;2023-04-24T03:13:28;6.10;;;4.70;;
55527;SDS011;52818;43.308;21.916;2023-04-24T03:15:29;7.80;;;4.50;;
55527;SDS011;52818;43.308;21.916;2023-04-24T03:17:28;5.90;;;4.30;;
55527;SDS011;52818;43.308;21.916;2023-04-24T03:19:29;5.70;;;4.50;;
55527;SDS011;52818;43.308;21.916;2023-04-24T03:21:29;6.00;;;4.60;;
55527;SDS011;52818;43.308;21.916;2023-04-24T03:23:29;7.40;;;;;
55527;SDS011;52818;43.308;21.916;2023-04-24T03:25:29;6.90;;;5.00;;
55527;SDS011;52818;43.308;21.916;2023-04-24T03:27:29;8.00;;;4.60;;
55527;SDS011;52818;43.308;21.916;2023-04-24T03:29:29;6.80;;;;;
55527;SDS011;52818;43.308;21.916;2023-04-24T03:31:29;6.10;;;;;
55527;SDS011;52818;43.308;21.916;2023-04-24T03:33:29;7.00;;;4.50;;
55527;SDS011;52818;43.308;21.916;2023-04-24T03:35:29;6.70;;;4.70;;
55527;SDS011;52818;43.308;21.916;2023-04-24T03:37:29;6.50;;;4.50;;
55527;SDS011;52818;43.308;21.916;2023-04-24T03:39:30;5.00;;;;;
55527;SDS011;52818;43.308;21.916;2023-04-24T03:41:30;8.00;;;4.40;;
55527;SDS011;52818;43.308;21.916;2023-04-24T03:43:30;6.60;;;4.70;;
55527;SDS011;52818;43.308;21.916;2023-04-24T03:45:30;5.50;;;4.20;;
55527;SDS011;52818;43.308;21.916;2023-04-24T03:47:30;9.50;;;4.60;;
55527;SDS011;52818;43.308;21.916;2023-04-24T03:49:30;8.30;;;4.50;;
55527;SDS011;52818;43.308;21.916;2023-04-24T03:51:30;6.10;;;;;
55527;SDS011;52818;43.308;21.916;2023-04-24T03:53:30;7.40;;;4.70;;
55527;SDS011;52818;43.308;21.916;2023-04-24T03:55:30;6.50;;;5.10;;
55527;SDS011;52818;43.308;21.916;2023-04-24T03:57:30;9.60;;;6.30;;
55527;SDS011;52818;43.308;21.916;2023-04-24T03:59:30;11.50;;;6.20;;
55527;SDS011;52818;43.308;21.916;2023-04-24T04:01:31;9.30;;;5.90;;
55527;SDS011;52818;43.308;21.916;2023-04-24T04:03:31;9.20;;;5.80;;
55527;SDS011;52818;43.308;21.916;2023-04-24T04:05:31;7.60;;;5.20;;
55527;SDS011;52818;43.308;21.916;2023-04-24T04:07:31;9.50;;;5.40;;
55527;SDS011;52818;43.308;21.916;2023-04-24T04:09:31;7.70;;;5.00;;
55527;SDS011;52818;43.308;21.916;2023-04-24T04:11:31;8.10;;;4.90;;
55527;SDS011;52818;43.308;21.916;2023-04-24T04:13:31;7.00;;;4.80;;
55527;SDS011;52818;43.308;21.916;2023-04-24T04:15:31;8.90;;;5.20;;
55527;SDS011;52818;43.308;21.916;2023-04-24T04:17:31;7.50;;;5.10;;
55527;SDS011;52818;43.308;21.916;2023-04-24T04:19:32;8.60;;;4.80;;
55527;SDS011;52818;43.308;21.916;2023-04-24T04:21:31;6.70;;;4.70;;
55527;SDS011;52818;43.308;21.916;2023-04-24T04:23:32;8.60;;;5.30;;
55527;SDS011;52818;43.308;21.916;2023-04-24T04:25:32;7.40;;;5.60;;
55527;SDS011;52818;43.308;21.916;2023-04-24T04:27:32;7.50;;;5.40;;
55527;SDS011;52818;43.308;21.916;2023-04-24T04:29:32;9.80;;;6.00;;
55527;SDS011;52818;43.308;21.916;2023-04-24T04:31:32;10.00;;;5.90;;
55527;SDS011;52818;43.308;21.916;2023-04-24T04:33:32;9.00;;;5.60;;
55527;SDS011;52818;43.308;21.916;2023-04-24T04:35:32;7.40;;;5.70;;
55527;SDS011;52818;43.308;21.916;2023-04-24T04:37:32;8.00;;;5.90;;
55527;SDS011;52818;43.308;21.916;2023-04-24T04:39:32;7.60;;;5.70;;
55527;SDS011;52818;43.308;21.916;2023-04-24T04:41:32;8.10;;;5.30;;
55527;SDS011;52818;43.308;21.916;2023-04-24T04:43:32;8.70;;;5.70;;
55527;SDS011;52818;43.308;21.916;2023-04-24T04:45:33;10.70;;;6.00;;
55527;SDS011;52818;43.308;21.916;2023-04-24T04:47:33;6.90;;;5.30;;
55527;SDS011;52818;43.308;21.916;2023-04-24T04:49:33;9.00;;;5.70;;
55527;SDS011;52818;43.308;21.916;2023-04-24T04:51:33;11.10;;;;;
55527;SDS011;52818;43.308;21.916;2023-04-24T04:53:33;7.60;;;5.30;;
55527;SDS011;52818;43.308;21.916;2023-04-24T04:55:33;10.70;;;5.50;;
55527;SDS011;52818;43.308;21.916;2023-04-24T04:57:33;9.20;;;5.60;;
55527;SDS011;52818;43.308;21.916;2023-04-24T05:00:04;7.80;;;5.40;;
55527;SDS011;52818;43.308;21.916;2023-04-24T05:02:03;9.60;;;5.50;;
55527;SDS011;52818;43.308;21.916;2023-04-24T05:04:03;9.70;;;5.40;;
55527;SDS011;52818;43.308;21.916;2023-04-24T05:06:04;8.30;;;5.90;;
55527;SDS011;52818;43.308;21.916;2023-04-24T05:08:04;8.70;;;5.30;;
55527;SDS011;52818;43.308;21.916;2023-04-24T05:10:04;9.50;;;;;
55527;SDS011;52818;43.308;21.916;2023-04-24T05:12:04;9.20;;;5.60;;
55527;SDS011;52818;43.308;21.916;2023-04-24T05:14:04;7.50;;;5.40;;
55527;SDS011;52818;43.308;21.916;2023-04-24T05:16:04;9.50;;;5.50;;
55527;SDS011;52818;43.308;21.916;2023-04-24T05:18:04;9.70;;;5.40;;
55527;SDS011;52818;43.308;21.916;2023-04-24T05:20:05;8.70;;;5.50;;
55527;SDS011;52818;43.308;21.916;2023-04-24T05:22:04;9.00;;;5.60;;
55527;SDS011;52818;43.308;21.916;2023-04-24T05:24:05;8.60;;;5.50;;
55527;SDS011;52818;43.308;21.916;2023-04-24T05:26:05;11.10;;;5.70;;
55527;SDS011;52818;43.308;21.916;2023-04-24T05:28:05;7.60;;;5.40;;
55527;SDS011;52818;43.308;21.916;2023-04-24T05:30:05;9.70;;;5.70;;
55527;SDS011;52818;43.308;21.916;2023-04-24T05:32:05;10.10;;;5.60;;
55527;SDS011;52818;43.308;21.916;2023-04-24T05:34:05;8.20;;;5.70;;
55527;SDS011;52818;43.308;21.916;2023-04-24T05:36:05;8.90;;;5.60;;
55527;SDS011;52818;43.308;21.916;2023-04-24T05:38:05;7.70;;;5.90;;
55527;SDS011;52818;43.308;21.916;2023-04-24T05:40:06;9.40;;;5.50;;
55527;SDS011;52818;43.308;21.916;2023-04-24T05:42:05;8.40;;;5.30;;
55527;SDS011;52818;43.308;21.916;2023-04-24T05:44:06;8.10;;;5.10;;
55527;SDS011;52818;43.308;21.916;2023-04-24T05:46:06;10.40;;;5.50;;
55527;SDS011;52818;43.308;21.916;2023-04-24T05:48:06;9.90;;;5.20;;
55527;SDS011;52818;43.308;21.916;2023-04-24T05:50:06;7.50;;;5.50;;
55527;SDS011;52818;43.308;21.916;2023-04-24T05:52:06;9.10;;;4.90;;
55527;SDS011;52818;43.308;21.916;2023-04-24T05:54:06;7.60;;;5.00;;
55527;SDS011;52818;43.308;21.916;2023-04-24T05:56:06;6.90;;;4.50;;
55527;SDS011;52818;43.308;21.916;2023-04-24T05:58:06;5.90;;;4.70;;
55527;SDS011;52818;43.308;21.916;2023-04-24T06:00:07;8.00;;;;;
55527;SDS011;52818;43.308;21.916;2023-04-24T06:02:07;7.10;;;;;
55527;SDS011;52818;43.308;21.916;2023-04-24T06:04:07;9.20;;;5.20;;
55527;SDS011;52818;43.308;21.916;2023-04-24T06:06:07;8.00;;;5.40;;
55527;SDS011;52818;43.308;21.916;2023-04-24T06:08:07;8.20;;;5.20;;
55527;SDS011;52818;43.308;21.916;2023-04-24T06:10:07;11.00;;;5.80;;
55527;SDS011;52818;43.308;21.916;2023-04-24T06:12:07;9.30;;;5.60;;
55527;SDS011;52818;43.308;21.916;2023-04-24T06:14:07;6.50;;;;;
55527;SDS011;52818;43.308;21.916;2023-04-24T06:16:07;9.30;;;6.10;;
55527;SDS011;52818;43.308;21.916;2023-04-24T06:18:07;;;;6.70;;
55527;SDS011;52818;43.308;21.916;2023-04-24T06:20:08;9.70;;;6.60;;
55527;SDS011;52818;43.308;21.916;2023-04-24T06:22:08;8.90;;;5.80;;
55527;SDS011;52818;43.308;21.916;2023-04-24T06:24:08;8.70;;;6.00;;
55527;SDS011;52818;43.308;21.916;2023-04-24T06:26:08;9.00;;;6.20;;
55527;SDS011;52818;43.308;21.916;2023-04-24T06:28:08;9.60;;;6.50;;
55527;SDS011;52818;43.308;21.916;2023-04-24T06:30:08;11.30;;;7.00;;
55527;SDS011;52818;43.308;21.916;2023-04-24T06:32:08;9.60;;;6.90;;
55527;SDS011;52818;43.308;21.916;2023-04-24T06:34:08;11.60;;;7.20;;
55527;SDS011;52818;43.308;21.916;2023-04-24T06:36:08;14.70;;;6.80;;
55527;SDS011;52818;43.308;21.916;2023-04-24T06:38:08;13.50;;;7.10;;
55527;SDS011;52818;43.308;21.916;2023-04-24T06:40:09;8.70;;;6.40;;
55527;SDS011;52818;43.308;21.916;2023-04-24T06:42:09;9.00;;;5.80;;
55527;SDS011;52818;43.308;21.916;2023-04-24T06:44:09;9.30;;;5.60;;
55527;SDS011;52818;43.308;21.916;2023-04-24T06:46:09;8.10;;;5.20;;
55527;SDS011;52818;43.308;21.916;2023-04-24T06:48:09;7.50;;;5.00;;
55527;SDS011;52818;43.308;21.916;2023-04-24T06:50:09;6.90;;;4.90;;
55527;SDS011;52818;43.308;21.916;2023-04-24T06:52:09;7.50;;;4.60;;
55527;SDS011;52818;43.308;21.916;2023-04-24T06:54:09;5.70;;;4.50;;
55527;SDS011;52818;43.308;21.916;2023-04-24T06:56:09;6.50;;;4.40;;
55527;SDS011;52818;43.308;21.916;2023-04-24T06:58:10;8.90;;;4.50;;
55527;SDS011;52818;43.308;21.916;2023-04-24T07:00:10;7.10;;;4.20;;
55527;SDS011;52818;43.308;21.916;2023-04-24T07:02:10;6.60;;;4.40;;
55527;SDS011;52818;43.308;21.916;2023-04-24T07:04:10;72.40;;;10.20;;
55527;SDS011;52818;43.308;21.916;2023-04-24T07:06:10;28.40;;;5.90;;
55527;SDS011;52818;43.308;21.916;2023-04-24T07:08:10;16.80;;;5.10;;
55527;SDS011;52818;43.308;21.916;2023-04-24T07:10:10;12.10;;;4.60;;
55527;SDS011;52818;43.308;21.916;2023-04-24T07:12:10;35.70;;;6.70;;
55527;SDS011;52818;43.308;21.916;2023-04-24T07:14:10;23.00;;;6.40;;
55527;SDS011;52818;43.308;21.916;2023-04-24T07:16:10;68.30;;;9.80;;
55527;SDS011;52818;43.308;21.916;2023-04-24T07:18:10;40.50;;;7.20;;
55527;SDS011;52818;43.308;21.916;2023-04-24T07:20:11;12.60;;;4.10;;
55527;SDS011;52818;43.308;21.916;2023-04-24T07:22:11;23.80;;;5.00;;
55527;SDS011;52818;43.308;21.916;2023-04-24T07:24:11;4.80;;;3.50;;
55527;SDS011;52818;43.308;21.916;2023-04-24T07:26:11;6.10;;;3.40;;
55527;SDS011;52818;43.308;21.916;2023-04-24T07:28:11;5.50;;;3.30;;
55527;SDS011;52818;43.308;21.916;2023-04-24T07:30:11;3.80;;;;;
55527;SDS011;52818;43.308;21.916;2023-04-24T07:54:15;5.40;;;3.20;;
55527;SDS011;52818;43.308;21.916;2023-04-24T07:56:15;4.40;;;3.10;;
55527;SDS011;52818;43.308;21.916;2023-04-24T07:58:15;4.60;;;3.00;;
55527;SDS011;52818;43.308;21.916;2023-04-24T08:00:15;6.20;;;;;
55527;SDS011;52818;43.308;21.916;2023-04-24T08:02:15;4.20;;;3.10;;
55527;SDS011;52818;43.308;21.916;2023-04-24T08:04:15;5.10;;;;;
55527;SDS011;52818;43.308;21.916;2023-04-24T08:06:15;4.50;;;3.00;;
55527;SDS011;52818;43.308;21.916;2023-04-24T08:08:16;4.70;;;2.90;;
55527;SDS011;52818;43.308;21.916;2023-04-24T08:10:16;5.50;;;3.60;;
55527;SDS011;52818;43.308;21.916;2023-04-24T08:12:15;4.40;;;3.10;;
55527;SDS011;52818;43.308;21.916;2023-04-24T08:14:16;5.50;;;;;
55527;SDS011;52818;43.308;21.916;2023-04-24T08:16:16;3.20;;;2.90;;
55527;SDS011;52818;43.308;21.916;2023-04-24T08:18:16;4.30;;;2.70;;
55527;SDS011;52818;43.308;21.916;2023-04-24T08:20:16;6.60;;;2.90;;
55527;SDS011;52818;43.308;21.916;2023-04-24T08:22:16;5.70;;;2.80;;
55527;SDS011;52818;43.308;21.916;2023-04-24T08:24:16;4.40;;;2.90;;
55527;SDS011;52818;43.308;21.916;2023-04-24T08:26:46;4.80;;;3.00;;
55527;SDS011;52818;43.308;21.916;2023-04-24T08:28:46;3.90;;;;;
55527;SDS011;52818;43.308;21.916;2023-04-24T08:30:47;4.00;;;2.70;;
55527;SDS011;52818;43.308;21.916;2023-04-24T08:32:47;4.90;;;3.00;;
55527;SDS011;52818;43.308;21.916;2023-04-24T08:34:47;4.00;;;;;
55527;SDS011;52818;43.308;21.916;2023-04-24T08:36:47;4.50;;;2.70;;
55527;SDS011;52818;43.308;21.916;2023-04-24T08:38:47;3.00;;;2.50;;
55527;SDS011;52818;43.308;21.916;2023-04-24T08:40:47;5.80;;;2.90;;
55527;SDS011;52818;43.308;21.916;2023-04-24T08:42:47;4.50;;;2.70;;
55527;SDS011;52818;43.308;21.916;2023-04-24T08:44:48;6.40;;;2.80;;
55527;SDS011;52818;43.308;21.916;2023-04-24T08:46:48;4.80;;;3.20;;
55527;SDS011;52818;43.308;21.916;2023-04-24T08:48:48;4.10;;;2.70;;
55527;SDS011;52818;43.308;21.916;2023-04-24T08:50:48;3.40;;;2.80;;
55527;SDS011;52818;43.308;21.916;2023-04-24T08:52:49;3.60;;;2.60;;
55527;SDS011;52818;43.308;21.916;2023-04-24T08:54:48;4.50;;;2.70;;
55527;SDS011;52818;43.308;21.916;2023-04-24T08:56:48;6.70;;;2.90;;
55527;SDS011;52818;43.308;21.916;2023-04-24T08:58:50;7.20;;;2.80;;
55527;SDS011;52818;43.308;21.916;2023-04-24T09:00:48;6.40;;;3.30;;
55527;SDS011;52818;43.308;21.916;2023-04-24T09:02:49;4.40;;;3.10;;
55527;SDS011;52818;43.308;21.916;2023-04-24T09:04:48;4.90;;;3.30;;
55527;SDS011;52818;43.308;21.916;2023-04-24T09:06:49;3.50;;;3.10;;
55527;SDS011;52818;43.308;21.916;2023-04-24T09:08:49;3.90;;;2.80;;
55527;SDS011;52818;43.308;21.916;2023-04-24T09:10:49;4.80;;;;;
55527;SDS011;52818;43.308;21.916;2023-04-24T09:12:49;4.70;;;3.40;;
55527;SDS011;52818;43.308;21.916;2023-04-24T09:14:49;4.80;;;3.10;;
55527;SDS011;52818;43.308;21.916;2023-04-24T09:16:49;5.80;;;3.20;;
55527;SDS011;52818;43.308;21.916;2023-04-24T09:18:49;3.60;;;2.50;;
55527;SDS011;52818;43.308;21.916;2023-04-24T09:20:57;4.30;;;2.70;;
55527;SDS011;52818;43.308;21.916;2023-04-24T09:22:52;3.90;;;2.80;;
55527;SDS011;52818;43.308;21.916;2023-04-24T09:24:59;5.60;;;3.00;;
55527;SDS011;52818;43.308;21.916;2023-04-24T09:26:55;3.90;;;2.70;;
55527;SDS011;52818;43.308;21.916;2023-04-24T09:28:50;4.70;;;;;
55527;SDS011;52818;43.308;21.916;2023-04-24T09:33:09;6.60;;;2.80;;
55527;SDS011;52818;43.308;21.916;2023-04-24T09:35:04;4.10;;;;;
55527;SDS011;52818;43.308;21.916;2023-04-24T09:36:55;4.40;;;2.50;;
55527;SDS011;52818;43.308;21.916;2023-04-24T09:38:57;4.60;;;2.70;;
55527;SDS011;52818;43.308;21.916;2023-04-24T09:42:56;6.30;;;2.50;;
55527;SDS011;52818;43.308;21.916;2023-04-24T09:44:54;4.30;;;;;
55527;SDS011;52818;43.308;21.916;2023-04-24T09:46:51;3.60;;;;;
55527;SDS011;52818;43.308;21.916;2023-04-24T09:48:51;2.90;;;2.60;;
55527;SDS011;52818;43.308;21.916;2023-04-24T09:50:51;3.10;;;2.80;;
